sensor_id;sensor_type;location;lat;lon;timestamp;P1;durP1;ratioP1;P2;durP2;ratioP2
4047;SDS011;2038;51.728;6.674;2023-03-01T00:01:35;13.37;;;10.00;;
4047;SDS011;2038;51.728;6.674;2023-03-01T00:04:01;14.10;;;10.50;;
4047;SDS011;2038;51.728;6.674;2023-03-01T00:06:28;11.40;;;10.20;;
4047;SDS011;2038;51.728;6.674;2023-03-01T00:08:53;10.97;;;9.60;;
4047;SDS011;2038;51.728;6.674;2023-03-01T00:11:21;10.20;;;9.03;;
4047;SDS011;2038;51.728;6.674;2023-03-01T00:13:55;14.00;;;9.57;;
4047;SDS011;2038;51.728;6.674;2023-03-01T00:16:27;14.57;;;10.27;;
4047;SDS011;2038;51.728;6.674;2023-03-01T00:19:12;13.03;;;8.97;;
4047;SDS011;2038;51.728;6.674;2023-03-01T00:21:42;16.10;;;10.00;;
4047;SDS011;2038;51.728;6.674;2023-03-01T00:24:09;14.10;;;9.40;;
4047;SDS011;2038;51.728;6.674;2023-03-01T00:26:36;15.10;;;11.00;;
4047;SDS011;2038;51.728;6.674;2023-03-01T00:29:02;15.43;;;9.90;;
4047;SDS011;2038;51.728;6.674;2023-03-01T00:31:29;14.50;;;12.33;;
4047;SDS011;2038;51.728;6.674;2023-03-01T00:33:58;12.37;;;8.90;;
4047;SDS011;2038;51.728;6.674;2023-03-01T00:36:30;17.20;;;9.00;;
4047;SDS011;2038;51.728;6.674;2023-03-01T00:39:02;13.43;;;10.50;;
4047;SDS011;2038;51.728;6.674;2023-03-01T00:41:35;11.97;;;9.60;;
4047;SDS011;2038;51.728;6.674;2023-03-01T00:44:01;17.60;;;10.00;;
4047;SDS011;2038;51.728;6.674;2023-03-01T00:46:27;13.37;;;9.37;;
4047;SDS011;2038;51.728;6.674;2023-03-01T00:48:55;13.47;;;9.97;;
4047;SDS011;2038;51.728;6.674;2023-03-01T00:51:22;12.83;;;9.43;;
4047;SDS011;2038;51.728;6.674;2023-03-01T00:53:53;10.77;;;9.67;;
4047;SDS011;2038;51.728;6.674;2023-03-01T00:56:24;12.97;;;10.67;;
4047;SDS011;2038;51.728;6.674;2023-03-01T00:58:51;13.60;;;10.47;;
4047;SDS011;2038;51.728;6.674;2023-03-01T01:01:18;14.13;;;11.27;;
4047;SDS011;2038;51.728;6.674;2023-03-01T01:04:05;17.53;;;12.13;;
4047;SDS011;2038;51.728;6.674;2023-03-01T01:06:38;15.77;;;10.43;;
4047;SDS011;2038;51.728;6.674;2023-03-01T01:09:12;12.30;;;9.40;;
4047;SDS011;2038;51.728;6.674;2023-03-01T01:11:42;10.73;;;9.00;;
4047;SDS011;2038;51.728;6.674;2023-03-01T01:14:11;14.10;;;10.50;;
4047;SDS011;2038;51.728;6.674;2023-03-01T01:16:38;15.17;;;9.67;;
4047;SDS011;2038;51.728;6.674;2023-03-01T01:19:04;14.70;;;10.30;;
4047;SDS011;2038;51.728;6.674;2023-03-01T01:21:31;13.03;;;10.87;;
4047;SDS011;2038;51.728;6.674;2023-03-01T01:23:58;16.60;;;11.03;;
4047;SDS011;2038;51.728;6.674;2023-03-01T01:26:25;12.27;;;10.80;;
4047;SDS011;2038;51.728;6.674;2023-03-01T01:28:55;12.70;;;10.73;;
4047;SDS011;2038;51.728;6.674;2023-03-01T01:31:23;15.80;;;10.50;;
4047;SDS011;2038;51.728;6.674;2023-03-01T01:33:50;11.63;;;9.23;;
4047;SDS011;2038;51.728;6.674;2023-03-01T01:36:18;13.10;;;10.60;;
4047;SDS011;2038;51.728;6.674;2023-03-01T01:38:44;16.20;;;11.20;;
4047;SDS011;2038;51.728;6.674;2023-03-01T01:41:11;15.00;;;10.00;;
4047;SDS011;2038;51.728;6.674;2023-03-01T01:43:43;11.00;;;9.50;;
4047;SDS011;2038;51.728;6.674;2023-03-01T01:46:30;14.50;;;10.87;;
4047;SDS011;2038;51.728;6.674;2023-03-01T01:49:07;14.67;;;9.63;;
4047;SDS011;2038;51.728;6.674;2023-03-01T01:52:29;18.73;;;10.83;;
4047;SDS011;2038;51.728;6.674;2023-03-01T01:55:11;13.13;;;9.73;;
4047;SDS011;2038;51.728;6.674;2023-03-01T01:57:52;14.03;;;9.73;;
4047;SDS011;2038;51.728;6.674;2023-03-01T02:00:27;13.13;;;10.00;;
4047;SDS011;2038;51.728;6.674;2023-03-01T02:02:56;16.07;;;10.20;;
4047;SDS011;2038;51.728;6.674;2023-03-01T02:05:40;14.67;;;10.87;;
4047;SDS011;2038;51.728;6.674;2023-03-01T02:08:31;13.73;;;10.90;;
4047;SDS011;2038;51.728;6.674;2023-03-01T02:11:04;13.47;;;9.13;;
4047;SDS011;2038;51.728;6.674;2023-03-01T02:13:32;12.57;;;10.67;;
4047;SDS011;2038;51.728;6.674;2023-03-01T02:16:04;12.57;;;10.30;;
4047;SDS011;2038;51.728;6.674;2023-03-01T02:18:41;13.47;;;10.37;;
4047;SDS011;2038;51.728;6.674;2023-03-01T02:24:26;14.87;;;12.10;;
4047;SDS011;2038;51.728;6.674;2023-03-01T02:27:40;17.27;;;10.70;;
4047;SDS011;2038;51.728;6.674;2023-03-01T02:30:20;24.47;;;12.50;;
4047;SDS011;2038;51.728;6.674;2023-03-01T02:32:51;15.30;;;10.13;;
4047;SDS011;2038;51.728;6.674;2023-03-01T02:35:27;13.37;;;11.53;;
4047;SDS011;2038;51.728;6.674;2023-03-01T02:38:03;16.80;;;11.60;;
4047;SDS011;2038;51.728;6.674;2023-03-01T02:40:34;17.27;;;11.60;;
4047;SDS011;2038;51.728;6.674;2023-03-01T02:43:06;18.87;;;11.70;;
4047;SDS011;2038;51.728;6.674;2023-03-01T02:45:37;17.60;;;11.83;;
4047;SDS011;2038;51.728;6.674;2023-03-01T02:48:14;12.27;;;10.20;;
4047;SDS011;2038;51.728;6.674;2023-03-01T02:53:46;19.80;;;11.03;;
4047;SDS011;2038;51.728;6.674;2023-03-01T02:56:37;15.00;;;11.10;;
4047;SDS011;2038;51.728;6.674;2023-03-01T02:59:04;15.13;;;11.43;;
4047;SDS011;2038;51.728;6.674;2023-03-01T03:01:30;15.73;;;11.30;;
4047;SDS011;2038;51.728;6.674;2023-03-01T03:04:04;21.10;;;11.87;;
4047;SDS011;2038;51.728;6.674;2023-03-01T03:06:43;16.70;;;11.70;;
4047;SDS011;2038;51.728;6.674;2023-03-01T03:09:11;14.40;;;10.77;;
4047;SDS011;2038;51.728;6.674;2023-03-01T03:11:39;17.47;;;10.93;;
4047;SDS011;2038;51.728;6.674;2023-03-01T03:14:07;13.40;;;10.17;;
4047;SDS011;2038;51.728;6.674;2023-03-01T03:16:41;13.17;;;10.33;;
4047;SDS011;2038;51.728;6.674;2023-03-01T03:19:17;15.60;;;11.87;;
4047;SDS011;2038;51.728;6.674;2023-03-01T03:21:44;16.70;;;11.07;;
4047;SDS011;2038;51.728;6.674;2023-03-01T03:24:10;16.50;;;11.63;;
4047;SDS011;2038;51.728;6.674;2023-03-01T03:26:36;20.80;;;12.00;;
4047;SDS011;2038;51.728;6.674;2023-03-01T03:29:03;18.50;;;13.67;;
4047;SDS011;2038;51.728;6.674;2023-03-01T03:31:28;16.73;;;12.23;;
4047;SDS011;2038;51.728;6.674;2023-03-01T03:33:55;19.57;;;12.70;;
4047;SDS011;2038;51.728;6.674;2023-03-01T03:36:22;17.37;;;10.73;;
4047;SDS011;2038;51.728;6.674;2023-03-01T03:38:49;14.30;;;11.83;;
4047;SDS011;2038;51.728;6.674;2023-03-01T03:41:16;15.90;;;11.20;;
4047;SDS011;2038;51.728;6.674;2023-03-01T03:43:42;18.10;;;11.73;;
4047;SDS011;2038;51.728;6.674;2023-03-01T03:46:09;17.77;;;12.47;;
4047;SDS011;2038;51.728;6.674;2023-03-01T03:48:38;18.57;;;11.57;;
4047;SDS011;2038;51.728;6.674;2023-03-01T03:51:12;13.90;;;10.93;;
4047;SDS011;2038;51.728;6.674;2023-03-01T03:53:42;16.03;;;11.77;;
4047;SDS011;2038;51.728;6.674;2023-03-01T03:56:09;16.20;;;11.83;;
4047;SDS011;2038;51.728;6.674;2023-03-01T03:58:37;11.80;;;10.37;;
4047;SDS011;2038;51.728;6.674;2023-03-01T04:01:03;13.47;;;10.53;;
4047;SDS011;2038;51.728;6.674;2023-03-01T04:03:30;14.33;;;11.80;;
4047;SDS011;2038;51.728;6.674;2023-03-01T04:05:58;18.87;;;12.33;;
4047;SDS011;2038;51.728;6.674;2023-03-01T04:08:26;15.77;;;10.87;;
4047;SDS011;2038;51.728;6.674;2023-03-01T04:10:56;17.93;;;12.40;;
4047;SDS011;2038;51.728;6.674;2023-03-01T04:13:49;17.57;;;11.17;;
4047;SDS011;2038;51.728;6.674;2023-03-01T04:16:17;23.70;;;12.20;;
4047;SDS011;2038;51.728;6.674;2023-03-01T04:18:44;22.10;;;10.13;;
4047;SDS011;2038;51.728;6.674;2023-03-01T04:21:11;17.67;;;12.70;;
4047;SDS011;2038;51.728;6.674;2023-03-01T04:23:37;17.67;;;11.60;;
4047;SDS011;2038;51.728;6.674;2023-03-01T04:26:05;14.93;;;11.10;;
4047;SDS011;2038;51.728;6.674;2023-03-01T04:28:33;21.57;;;14.17;;
4047;SDS011;2038;51.728;6.674;2023-03-01T04:31:14;15.57;;;11.27;;
4047;SDS011;2038;51.728;6.674;2023-03-01T04:33:46;20.60;;;13.80;;
4047;SDS011;2038;51.728;6.674;2023-03-01T04:36:22;18.40;;;12.30;;
4047;SDS011;2038;51.728;6.674;2023-03-01T04:38:53;17.20;;;11.87;;
4047;SDS011;2038;51.728;6.674;2023-03-01T04:41:22;15.97;;;10.57;;
4047;SDS011;2038;51.728;6.674;2023-03-01T04:43:50;17.67;;;12.60;;
4047;SDS011;2038;51.728;6.674;2023-03-01T04:46:17;23.03;;;11.90;;
4047;SDS011;2038;51.728;6.674;2023-03-01T04:48:46;18.00;;;12.00;;
4047;SDS011;2038;51.728;6.674;2023-03-01T04:51:13;13.37;;;11.17;;
4047;SDS011;2038;51.728;6.674;2023-03-01T04:53:40;16.67;;;12.27;;
4047;SDS011;2038;51.728;6.674;2023-03-01T04:56:08;16.83;;;11.27;;
4047;SDS011;2038;51.728;6.674;2023-03-01T04:58:34;17.47;;;11.93;;
4047;SDS011;2038;51.728;6.674;2023-03-01T05:01:00;15.90;;;11.63;;
4047;SDS011;2038;51.728;6.674;2023-03-01T05:03:26;15.20;;;11.77;;
4047;SDS011;2038;51.728;6.674;2023-03-01T05:05:53;19.07;;;12.20;;
4047;SDS011;2038;51.728;6.674;2023-03-01T05:08:18;20.10;;;11.53;;
4047;SDS011;2038;51.728;6.674;2023-03-01T05:10:46;14.63;;;11.97;;
4047;SDS011;2038;51.728;6.674;2023-03-01T05:13:17;18.23;;;11.13;;
4047;SDS011;2038;51.728;6.674;2023-03-01T05:15:49;17.90;;;11.90;;
4047;SDS011;2038;51.728;6.674;2023-03-01T05:18:22;13.37;;;9.87;;
4047;SDS011;2038;51.728;6.674;2023-03-01T05:20:53;20.90;;;10.97;;
4047;SDS011;2038;51.728;6.674;2023-03-01T05:23:23;17.17;;;12.30;;
4047;SDS011;2038;51.728;6.674;2023-03-01T05:25:50;13.57;;;11.30;;
4047;SDS011;2038;51.728;6.674;2023-03-01T05:28:17;20.27;;;13.83;;
4047;SDS011;2038;51.728;6.674;2023-03-01T05:30:45;17.17;;;11.80;;
4047;SDS011;2038;51.728;6.674;2023-03-01T05:33:12;30.90;;;13.97;;
4047;SDS011;2038;51.728;6.674;2023-03-01T05:35:38;19.50;;;12.23;;
4047;SDS011;2038;51.728;6.674;2023-03-01T05:38:10;15.57;;;11.43;;
4047;SDS011;2038;51.728;6.674;2023-03-01T05:40:41;15.40;;;11.60;;
4047;SDS011;2038;51.728;6.674;2023-03-01T05:43:11;23.30;;;11.53;;
4047;SDS011;2038;51.728;6.674;2023-03-01T05:45:40;17.67;;;11.23;;
4047;SDS011;2038;51.728;6.674;2023-03-01T05:48:07;16.07;;;11.93;;
4047;SDS011;2038;51.728;6.674;2023-03-01T05:50:37;17.67;;;10.63;;
4047;SDS011;2038;51.728;6.674;2023-03-01T05:53:09;16.70;;;11.77;;
4047;SDS011;2038;51.728;6.674;2023-03-01T05:55:44;19.90;;;12.43;;
4047;SDS011;2038;51.728;6.674;2023-03-01T05:58:13;17.13;;;12.23;;
4047;SDS011;2038;51.728;6.674;2023-03-01T06:00:44;14.33;;;12.10;;
4047;SDS011;2038;51.728;6.674;2023-03-01T06:03:14;16.97;;;11.90;;
4047;SDS011;2038;51.728;6.674;2023-03-01T06:05:42;14.80;;;11.60;;
4047;SDS011;2038;51.728;6.674;2023-03-01T06:08:09;19.17;;;12.10;;
4047;SDS011;2038;51.728;6.674;2023-03-01T06:10:37;16.40;;;12.80;;
4047;SDS011;2038;51.728;6.674;2023-03-01T06:13:03;16.17;;;12.40;;
4047;SDS011;2038;51.728;6.674;2023-03-01T06:15:30;15.10;;;12.00;;
4047;SDS011;2038;51.728;6.674;2023-03-01T06:17:56;17.90;;;12.83;;
4047;SDS011;2038;51.728;6.674;2023-03-01T06:20:25;17.00;;;12.60;;
4047;SDS011;2038;51.728;6.674;2023-03-01T06:22:53;24.00;;;13.37;;
4047;SDS011;2038;51.728;6.674;2023-03-01T06:25:20;17.70;;;12.77;;
4047;SDS011;2038;51.728;6.674;2023-03-01T06:27:49;16.03;;;11.30;;
4047;SDS011;2038;51.728;6.674;2023-03-01T06:30:17;19.77;;;13.00;;
4047;SDS011;2038;51.728;6.674;2023-03-01T06:32:46;16.63;;;12.50;;
4047;SDS011;2038;51.728;6.674;2023-03-01T06:35:13;20.00;;;12.90;;
4047;SDS011;2038;51.728;6.674;2023-03-01T06:37:43;16.47;;;10.97;;
4047;SDS011;2038;51.728;6.674;2023-03-01T06:40:10;17.67;;;12.30;;
4047;SDS011;2038;51.728;6.674;2023-03-01T06:42:39;21.50;;;13.83;;
4047;SDS011;2038;51.728;6.674;2023-03-01T06:45:08;18.90;;;10.90;;
4047;SDS011;2038;51.728;6.674;2023-03-01T06:47:36;20.80;;;12.57;;
4047;SDS011;2038;51.728;6.674;2023-03-01T06:50:02;20.73;;;14.53;;
4047;SDS011;2038;51.728;6.674;2023-03-01T06:52:28;18.27;;;13.73;;
4047;SDS011;2038;51.728;6.674;2023-03-01T06:54:55;18.20;;;12.73;;
4047;SDS011;2038;51.728;6.674;2023-03-01T06:57:21;19.40;;;11.33;;
4047;SDS011;2038;51.728;6.674;2023-03-01T06:59:47;18.20;;;12.70;;
4047;SDS011;2038;51.728;6.674;2023-03-01T07:02:13;19.73;;;11.53;;
4047;SDS011;2038;51.728;6.674;2023-03-01T07:04:40;14.93;;;11.27;;
4047;SDS011;2038;51.728;6.674;2023-03-01T07:07:07;19.10;;;11.27;;
4047;SDS011;2038;51.728;6.674;2023-03-01T07:09:34;20.17;;;12.97;;
4047;SDS011;2038;51.728;6.674;2023-03-01T07:12:00;14.37;;;12.00;;
4047;SDS011;2038;51.728;6.674;2023-03-01T07:14:27;16.80;;;11.70;;
4047;SDS011;2038;51.728;6.674;2023-03-01T07:16:53;21.07;;;11.87;;
4047;SDS011;2038;51.728;6.674;2023-03-01T07:19:20;17.83;;;13.07;;
4047;SDS011;2038;51.728;6.674;2023-03-01T07:21:47;18.63;;;12.00;;
4047;SDS011;2038;51.728;6.674;2023-03-01T07:24:13;20.27;;;11.90;;
4047;SDS011;2038;51.728;6.674;2023-03-01T07:26:39;16.60;;;12.43;;
4047;SDS011;2038;51.728;6.674;2023-03-01T07:29:06;14.43;;;11.30;;
4047;SDS011;2038;51.728;6.674;2023-03-01T07:31:35;18.23;;;14.17;;
4047;SDS011;2038;51.728;6.674;2023-03-01T07:34:01;15.90;;;12.30;;
4047;SDS011;2038;51.728;6.674;2023-03-01T07:36:28;16.37;;;11.50;;
4047;SDS011;2038;51.728;6.674;2023-03-01T07:38:54;16.50;;;11.83;;
4047;SDS011;2038;51.728;6.674;2023-03-01T07:41:20;17.30;;;11.60;;
4047;SDS011;2038;51.728;6.674;2023-03-01T07:43:46;17.97;;;11.43;;
4047;SDS011;2038;51.728;6.674;2023-03-01T07:46:12;18.33;;;11.77;;
4047;SDS011;2038;51.728;6.674;2023-03-01T07:48:38;19.50;;;11.60;;
4047;SDS011;2038;51.728;6.674;2023-03-01T07:51:04;14.57;;;11.43;;
4047;SDS011;2038;51.728;6.674;2023-03-01T07:53:32;20.20;;;13.27;;
4047;SDS011;2038;51.728;6.674;2023-03-01T07:56:11;16.80;;;12.40;;
4047;SDS011;2038;51.728;6.674;2023-03-01T07:58:42;13.40;;;10.23;;
4047;SDS011;2038;51.728;6.674;2023-03-01T08:01:10;18.43;;;10.80;;
4047;SDS011;2038;51.728;6.674;2023-03-01T08:03:41;16.47;;;10.23;;
4047;SDS011;2038;51.728;6.674;2023-03-01T08:06:11;16.47;;;10.77;;
4047;SDS011;2038;51.728;6.674;2023-03-01T08:08:40;16.40;;;10.93;;
4047;SDS011;2038;51.728;6.674;2023-03-01T08:11:07;13.73;;;10.47;;
4047;SDS011;2038;51.728;6.674;2023-03-01T08:13:38;13.40;;;10.60;;
4047;SDS011;2038;51.728;6.674;2023-03-01T08:16:08;15.60;;;11.93;;
4047;SDS011;2038;51.728;6.674;2023-03-01T08:18:40;14.20;;;11.07;;
4047;SDS011;2038;51.728;6.674;2023-03-01T08:21:08;13.77;;;10.07;;
4047;SDS011;2038;51.728;6.674;2023-03-01T08:23:38;12.30;;;9.73;;
4047;SDS011;2038;51.728;6.674;2023-03-01T08:26:09;15.57;;;11.20;;
4047;SDS011;2038;51.728;6.674;2023-03-01T08:28:43;14.37;;;10.17;;
4047;SDS011;2038;51.728;6.674;2023-03-01T08:31:22;14.70;;;11.13;;
4047;SDS011;2038;51.728;6.674;2023-03-01T08:33:55;14.73;;;10.93;;
4047;SDS011;2038;51.728;6.674;2023-03-01T08:36:28;21.50;;;12.20;;
4047;SDS011;2038;51.728;6.674;2023-03-01T08:39:03;17.33;;;11.27;;
4047;SDS011;2038;51.728;6.674;2023-03-01T08:41:31;14.57;;;11.43;;
4047;SDS011;2038;51.728;6.674;2023-03-01T08:43:57;15.07;;;11.50;;
4047;SDS011;2038;51.728;6.674;2023-03-01T08:46:30;16.90;;;12.10;;
4047;SDS011;2038;51.728;6.674;2023-03-01T08:49:03;22.47;;;12.43;;
4047;SDS011;2038;51.728;6.674;2023-03-01T08:51:37;15.50;;;11.73;;
4047;SDS011;2038;51.728;6.674;2023-03-01T08:54:04;17.70;;;12.17;;
4047;SDS011;2038;51.728;6.674;2023-03-01T08:56:34;11.37;;;10.17;;
4047;SDS011;2038;51.728;6.674;2023-03-01T08:59:00;15.00;;;11.00;;
4047;SDS011;2038;51.728;6.674;2023-03-01T09:01:26;13.47;;;10.80;;
4047;SDS011;2038;51.728;6.674;2023-03-01T09:03:52;13.40;;;9.90;;
4047;SDS011;2038;51.728;6.674;2023-03-01T09:06:18;15.80;;;9.67;;
4047;SDS011;2038;51.728;6.674;2023-03-01T09:08:46;20.10;;;11.03;;
4047;SDS011;2038;51.728;6.674;2023-03-01T09:11:15;14.73;;;11.03;;
4047;SDS011;2038;51.728;6.674;2023-03-01T09:13:46;14.00;;;10.37;;
4047;SDS011;2038;51.728;6.674;2023-03-01T09:16:15;12.37;;;9.60;;
4047;SDS011;2038;51.728;6.674;2023-03-01T09:18:48;13.53;;;9.97;;
4047;SDS011;2038;51.728;6.674;2023-03-01T09:21:19;13.00;;;9.87;;
4047;SDS011;2038;51.728;6.674;2023-03-01T09:23:48;15.10;;;11.00;;
4047;SDS011;2038;51.728;6.674;2023-03-01T09:26:15;15.43;;;10.57;;
4047;SDS011;2038;51.728;6.674;2023-03-01T09:28:51;11.20;;;9.80;;
4047;SDS011;2038;51.728;6.674;2023-03-01T09:31:22;15.93;;;10.23;;
4047;SDS011;2038;51.728;6.674;2023-03-01T09:33:51;10.97;;;9.33;;
4047;SDS011;2038;51.728;6.674;2023-03-01T09:36:20;12.57;;;10.17;;
4047;SDS011;2038;51.728;6.674;2023-03-01T09:38:50;11.13;;;9.47;;
4047;SDS011;2038;51.728;6.674;2023-03-01T09:44:10;12.13;;;9.27;;
4047;SDS011;2038;51.728;6.674;2023-03-01T09:47:22;17.80;;;11.23;;
4047;SDS011;2038;51.728;6.674;2023-03-01T09:49:58;14.80;;;10.17;;
4047;SDS011;2038;51.728;6.674;2023-03-01T09:52:49;11.60;;;9.33;;
4047;SDS011;2038;51.728;6.674;2023-03-01T09:55:37;12.70;;;9.30;;
4047;SDS011;2038;51.728;6.674;2023-03-01T09:58:44;11.30;;;8.63;;
4047;SDS011;2038;51.728;6.674;2023-03-01T10:04:41;12.83;;;8.73;;
4047;SDS011;2038;51.728;6.674;2023-03-01T10:07:27;11.20;;;8.30;;
4047;SDS011;2038;51.728;6.674;2023-03-01T10:10:23;12.90;;;8.40;;
4047;SDS011;2038;51.728;6.674;2023-03-01T10:12:57;12.63;;;8.90;;
4047;SDS011;2038;51.728;6.674;2023-03-01T10:15:33;16.37;;;10.03;;
4047;SDS011;2038;51.728;6.674;2023-03-01T10:18:12;13.70;;;9.60;;
4047;SDS011;2038;51.728;6.674;2023-03-01T10:20:46;14.33;;;8.90;;
4047;SDS011;2038;51.728;6.674;2023-03-01T10:23:23;11.80;;;8.80;;
4047;SDS011;2038;51.728;6.674;2023-03-01T10:25:59;12.17;;;9.27;;
4047;SDS011;2038;51.728;6.674;2023-03-01T10:31:43;17.57;;;8.90;;
4047;SDS011;2038;51.728;6.674;2023-03-01T10:34:21;13.77;;;8.97;;
4047;SDS011;2038;51.728;6.674;2023-03-01T10:36:57;13.57;;;8.33;;
4047;SDS011;2038;51.728;6.674;2023-03-01T10:42:36;13.70;;;8.57;;
4047;SDS011;2038;51.728;6.674;2023-03-01T10:45:33;12.03;;;8.63;;
4047;SDS011;2038;51.728;6.674;2023-03-01T10:48:17;14.50;;;8.43;;
4047;SDS011;2038;51.728;6.674;2023-03-01T10:51:04;10.13;;;8.13;;
4047;SDS011;2038;51.728;6.674;2023-03-01T10:53:36;14.97;;;8.77;;
4047;SDS011;2038;51.728;6.674;2023-03-01T10:56:13;10.90;;;8.00;;
4047;SDS011;2038;51.728;6.674;2023-03-01T10:58:57;15.67;;;9.77;;
4047;SDS011;2038;51.728;6.674;2023-03-01T11:01:31;10.50;;;9.03;;
4047;SDS011;2038;51.728;6.674;2023-03-01T11:06:32;12.43;;;9.37;;
4047;SDS011;2038;51.728;6.674;2023-03-01T11:09:15;12.37;;;9.20;;
4047;SDS011;2038;51.728;6.674;2023-03-01T11:11:53;10.73;;;8.50;;
4047;SDS011;2038;51.728;6.674;2023-03-01T11:14:25;13.70;;;9.20;;
4047;SDS011;2038;51.728;6.674;2023-03-01T11:17:11;14.77;;;8.97;;
4047;SDS011;2038;51.728;6.674;2023-03-01T11:20:33;10.67;;;8.40;;
4047;SDS011;2038;51.728;6.674;2023-03-01T11:22:59;13.27;;;7.83;;
4047;SDS011;2038;51.728;6.674;2023-03-01T11:25:35;11.70;;;8.40;;
4047;SDS011;2038;51.728;6.674;2023-03-01T11:28:07;12.20;;;7.37;;
4047;SDS011;2038;51.728;6.674;2023-03-01T11:30:53;12.03;;;8.00;;
4047;SDS011;2038;51.728;6.674;2023-03-01T11:37:03;11.50;;;7.70;;
4047;SDS011;2038;51.728;6.674;2023-03-01T11:39:50;11.20;;;8.70;;
4047;SDS011;2038;51.728;6.674;2023-03-01T11:45:43;12.17;;;7.30;;
4047;SDS011;2038;51.728;6.674;2023-03-01T12:00:20;13.80;;;9.97;;
4047;SDS011;2038;51.728;6.674;2023-03-01T12:03:26;12.60;;;9.13;;
4047;SDS011;2038;51.728;6.674;2023-03-01T12:06:39;10.50;;;7.90;;
4047;SDS011;2038;51.728;6.674;2023-03-01T12:25:13;14.50;;;9.93;;
4047;SDS011;2038;51.728;6.674;2023-03-01T12:31:04;15.57;;;10.30;;
4047;SDS011;2038;51.728;6.674;2023-03-01T12:42:37;14.80;;;9.50;;
4047;SDS011;2038;51.728;6.674;2023-03-01T12:48:56;19.27;;;9.70;;
4047;SDS011;2038;51.728;6.674;2023-03-01T12:51:50;17.53;;;11.10;;
4047;SDS011;2038;51.728;6.674;2023-03-01T12:54:29;15.70;;;11.30;;
4047;SDS011;2038;51.728;6.674;2023-03-01T12:57:02;14.13;;;9.70;;
4047;SDS011;2038;51.728;6.674;2023-03-01T13:00:02;16.00;;;11.17;;
4047;SDS011;2038;51.728;6.674;2023-03-01T13:06:11;15.23;;;10.60;;
4047;SDS011;2038;51.728;6.674;2023-03-01T13:08:59;16.77;;;10.77;;
4047;SDS011;2038;51.728;6.674;2023-03-01T13:11:50;15.60;;;11.10;;
4047;SDS011;2038;51.728;6.674;2023-03-01T13:16:46;18.47;;;11.67;;
4047;SDS011;2038;51.728;6.674;2023-03-01T13:21:50;17.80;;;10.70;;
4047;SDS011;2038;51.728;6.674;2023-03-01T13:24:39;15.83;;;11.93;;
4047;SDS011;2038;51.728;6.674;2023-03-01T13:29:52;21.27;;;11.87;;
4047;SDS011;2038;51.728;6.674;2023-03-01T13:32:34;14.77;;;10.70;;
4047;SDS011;2038;51.728;6.674;2023-03-01T13:44:13;15.37;;;10.60;;
4047;SDS011;2038;51.728;6.674;2023-03-01T13:46:49;15.60;;;10.87;;
4047;SDS011;2038;51.728;6.674;2023-03-01T13:49:21;16.80;;;12.60;;
4047;SDS011;2038;51.728;6.674;2023-03-01T13:51:53;17.00;;;11.33;;
4047;SDS011;2038;51.728;6.674;2023-03-01T13:54:27;19.70;;;11.83;;
4047;SDS011;2038;51.728;6.674;2023-03-01T13:56:58;13.53;;;10.07;;
4047;SDS011;2038;51.728;6.674;2023-03-01T13:59:26;13.83;;;10.03;;
4047;SDS011;2038;51.728;6.674;2023-03-01T14:01:59;14.80;;;11.30;;
4047;SDS011;2038;51.728;6.674;2023-03-01T14:04:30;16.30;;;9.17;;
4047;SDS011;2038;51.728;6.674;2023-03-01T14:07:10;18.80;;;10.53;;
4047;SDS011;2038;51.728;6.674;2023-03-01T14:09:55;16.50;;;9.83;;
4047;SDS011;2038;51.728;6.674;2023-03-01T14:15:39;13.03;;;10.00;;
4047;SDS011;2038;51.728;6.674;2023-03-01T14:18:35;16.93;;;10.70;;
4047;SDS011;2038;51.728;6.674;2023-03-01T14:21:17;13.23;;;10.17;;
4047;SDS011;2038;51.728;6.674;2023-03-01T14:23:43;11.37;;;8.97;;
4047;SDS011;2038;51.728;6.674;2023-03-01T14:26:11;13.77;;;9.67;;
4047;SDS011;2038;51.728;6.674;2023-03-01T14:28:38;12.90;;;9.77;;
4047;SDS011;2038;51.728;6.674;2023-03-01T14:34:03;11.70;;;8.00;;
4047;SDS011;2038;51.728;6.674;2023-03-01T14:36:31;14.17;;;10.40;;
4047;SDS011;2038;51.728;6.674;2023-03-01T14:38:59;14.47;;;9.07;;
4047;SDS011;2038;51.728;6.674;2023-03-01T14:41:30;12.80;;;9.93;;
4047;SDS011;2038;51.728;6.674;2023-03-01T14:44:01;16.03;;;9.67;;
4047;SDS011;2038;51.728;6.674;2023-03-01T14:46:37;16.70;;;8.77;;
4047;SDS011;2038;51.728;6.674;2023-03-01T14:49:10;13.67;;;9.90;;
4047;SDS011;2038;51.728;6.674;2023-03-01T14:51:51;12.80;;;9.80;;
4047;SDS011;2038;51.728;6.674;2023-03-01T14:57:14;12.43;;;9.23;;
4047;SDS011;2038;51.728;6.674;2023-03-01T14:59:51;12.90;;;8.70;;
4047;SDS011;2038;51.728;6.674;2023-03-01T15:02:22;12.43;;;9.40;;
4047;SDS011;2038;51.728;6.674;2023-03-01T15:04:54;13.13;;;8.80;;
4047;SDS011;2038;51.728;6.674;2023-03-01T15:07:32;21.80;;;10.33;;
4047;SDS011;2038;51.728;6.674;2023-03-01T15:10:05;11.70;;;8.60;;
4047;SDS011;2038;51.728;6.674;2023-03-01T15:12:44;13.97;;;9.47;;
4047;SDS011;2038;51.728;6.674;2023-03-01T15:18:22;15.60;;;9.50;;
4047;SDS011;2038;51.728;6.674;2023-03-01T15:20:54;12.00;;;9.50;;
4047;SDS011;2038;51.728;6.674;2023-03-01T15:23:29;11.73;;;9.13;;
4047;SDS011;2038;51.728;6.674;2023-03-01T15:25:56;13.10;;;8.07;;
4047;SDS011;2038;51.728;6.674;2023-03-01T15:28:28;15.57;;;8.77;;
4047;SDS011;2038;51.728;6.674;2023-03-01T15:31:12;12.00;;;8.90;;
4047;SDS011;2038;51.728;6.674;2023-03-01T15:34:11;11.23;;;8.40;;
4047;SDS011;2038;51.728;6.674;2023-03-01T15:36:53;13.50;;;11.00;;
4047;SDS011;2038;51.728;6.674;2023-03-01T15:42:13;14.40;;;10.90;;
4047;SDS011;2038;51.728;6.674;2023-03-01T15:47:41;13.30;;;8.03;;
4047;SDS011;2038;51.728;6.674;2023-03-01T15:50:26;15.43;;;7.93;;
4047;SDS011;2038;51.728;6.674;2023-03-01T15:53:05;10.30;;;7.40;;
4047;SDS011;2038;51.728;6.674;2023-03-01T15:55:37;11.63;;;7.93;;
4047;SDS011;2038;51.728;6.674;2023-03-01T15:58:12;9.80;;;7.80;;
4047;SDS011;2038;51.728;6.674;2023-03-01T16:00:45;11.53;;;8.00;;
4047;SDS011;2038;51.728;6.674;2023-03-01T16:03:13;14.33;;;8.17;;
4047;SDS011;2038;51.728;6.674;2023-03-01T16:05:46;14.40;;;7.23;;
4047;SDS011;2038;51.728;6.674;2023-03-01T16:08:15;12.90;;;7.63;;
4047;SDS011;2038;51.728;6.674;2023-03-01T16:10:42;10.10;;;7.57;;
4047;SDS011;2038;51.728;6.674;2023-03-01T16:13:10;10.83;;;8.30;;
4047;SDS011;2038;51.728;6.674;2023-03-01T16:15:38;10.50;;;7.47;;
4047;SDS011;2038;51.728;6.674;2023-03-01T16:18:04;11.90;;;8.33;;
4047;SDS011;2038;51.728;6.674;2023-03-01T16:20:32;14.53;;;8.67;;
4047;SDS011;2038;51.728;6.674;2023-03-01T16:22:59;13.43;;;8.40;;
4047;SDS011;2038;51.728;6.674;2023-03-01T16:25:29;10.20;;;8.03;;
4047;SDS011;2038;51.728;6.674;2023-03-01T16:27:57;12.43;;;8.90;;
4047;SDS011;2038;51.728;6.674;2023-03-01T16:30:25;10.23;;;8.33;;
4047;SDS011;2038;51.728;6.674;2023-03-01T16:32:52;12.47;;;9.00;;
4047;SDS011;2038;51.728;6.674;2023-03-01T16:35:20;13.60;;;8.83;;
4047;SDS011;2038;51.728;6.674;2023-03-01T16:37:47;14.00;;;8.70;;
4047;SDS011;2038;51.728;6.674;2023-03-01T16:40:21;9.17;;;8.13;;
4047;SDS011;2038;51.728;6.674;2023-03-01T16:42:52;14.13;;;9.17;;
4047;SDS011;2038;51.728;6.674;2023-03-01T16:45:24;15.70;;;8.70;;
4047;SDS011;2038;51.728;6.674;2023-03-01T16:47:52;17.53;;;10.93;;
4047;SDS011;2038;51.728;6.674;2023-03-01T16:50:19;12.70;;;8.70;;
4047;SDS011;2038;51.728;6.674;2023-03-01T16:52:45;15.83;;;9.53;;
4047;SDS011;2038;51.728;6.674;2023-03-01T16:55:11;16.30;;;9.33;;
4047;SDS011;2038;51.728;6.674;2023-03-01T16:57:38;12.90;;;9.70;;
4047;SDS011;2038;51.728;6.674;2023-03-01T17:00:06;11.60;;;8.17;;
4047;SDS011;2038;51.728;6.674;2023-03-01T17:02:35;13.10;;;9.00;;
4047;SDS011;2038;51.728;6.674;2023-03-01T17:05:02;9.33;;;7.90;;
4047;SDS011;2038;51.728;6.674;2023-03-01T17:07:30;14.17;;;9.57;;
4047;SDS011;2038;51.728;6.674;2023-03-01T17:10:02;9.80;;;7.10;;
4047;SDS011;2038;51.728;6.674;2023-03-01T17:12:32;12.67;;;8.70;;
4047;SDS011;2038;51.728;6.674;2023-03-01T17:14:59;12.97;;;7.57;;